Time;durP1;ratioP1;P1;durP2;ratioP2;P2;SDS_P1;SDS_P2;PMS_P1;PMS_P2;Temp;Humidity;BMP_temperature;BMP_pressure;BME280_temperature;BME280_humidity;BME280_pressure;Samples;Min_cycle;Max_cycle;Signal;HPM_P1;HPM_P2
2020/12/26 00:01:37;;;;;;;4.60;2.50;;;18.70;50.40;;;;;;4983579;28;20208;-54
2020/12/26 00:04:03;;;;;;;5.47;2.90;;;18.60;50.40;;;;;;4977748;28;20208;-54
2020/12/26 00:06:30;;;;;;;5.80;3.03;;;18.60;50.40;;;;;;5004264;28;20363;-55
2020/12/26 00:08:56;;;;;;;3.87;3.10;;;18.60;50.60;;;;;;4991883;28;21420;-54
2020/12/26 00:11:22;;;;;;;4.70;3.10;;;18.60;50.70;;;;;;5005345;28;20556;-55
2020/12/26 00:13:50;;;;;;;4.13;2.97;;;18.50;50.70;;;;;;5001302;28;20617;-54
2020/12/26 00:16:18;;;;;;;3.93;3.13;;;18.50;50.70;;;;;;5005219;28;20199;-54
2020/12/26 00:18:45;;;;;;;4.13;3.00;;;18.50;50.90;;;;;;5008186;28;20192;-54
2020/12/26 00:21:15;;;;;;;7.30;3.77;;;18.40;51.00;;;;;;4996935;28;20210;-54
2020/12/26 00:23:41;;;;;;;3.77;3.10;;;18.40;51.10;;;;;;5002471;28;20199;-54
2020/12/26 00:26:08;;;;;;;4.07;2.87;;;18.40;51.20;;;;;;4997295;28;20195;-54
2020/12/26 00:28:34;;;;;;;6.70;3.10;;;18.30;51.30;;;;;;5009143;28;20203;-55
2020/12/26 00:31:01;;;;;;;3.50;3.17;;;18.30;51.40;;;;;;4995924;28;20837;-55
2020/12/26 00:33:30;;;;;;;4.60;3.10;;;18.30;51.40;;;;;;5008324;28;20227;-54
2020/12/26 00:35:56;;;;;;;4.60;2.90;;;18.20;51.30;;;;;;4998048;28;20227;-54
2020/12/26 00:38:23;;;;;;;4.13;3.00;;;18.20;51.50;;;;;;5008474;28;20200;-54
2020/12/26 00:40:49;;;;;;;5.10;3.10;;;18.20;51.50;;;;;;4999069;28;20199;-54
2020/12/26 00:43:15;;;;;;;7.70;2.93;;;18.20;51.60;;;;;;4988337;28;20656;-54
2020/12/26 00:45:42;;;;;;;5.40;3.10;;;18.10;51.60;;;;;;4998516;28;20226;-54
2020/12/26 00:48:08;;;;;;;4.67;2.70;;;18.10;51.70;;;;;;5005790;28;20551;-55
2020/12/26 00:50:36;;;;;;;3.40;2.90;;;18.10;51.70;;;;;;4997687;28;20227;-54
2020/12/26 00:53:02;;;;;;;4.07;2.73;;;18.10;51.70;;;;;;5006531;28;20215;-55
2020/12/26 00:55:29;;;;;;;3.93;2.83;;;18.10;51.80;;;;;;5001479;28;20200;-55
2020/12/26 00:57:55;;;;;;;3.80;2.90;;;18.00;51.80;;;;;;5014168;28;20227;-54
2020/12/26 01:00:21;;;;;;;4.33;2.80;;;18.10;52.00;;;;;;5005325;28;20253;-55
2020/12/26 01:02:49;;;;;;;3.57;2.67;;;18.00;51.90;;;;;;5005761;28;20240;-54
2020/12/26 01:05:15;;;;;;;4.17;2.80;;;18.00;52.00;;;;;;5005589;28;20207;-55
2020/12/26 01:07:41;;;;;;;3.60;2.50;;;18.00;52.00;;;;;;4999003;28;20224;-54
2020/12/26 01:10:07;;;;;;;4.00;2.50;;;18.00;52.10;;;;;;5005133;28;20215;-54
2020/12/26 01:12:34;;;;;;;4.23;2.60;;;18.00;52.20;;;;;;5001196;28;20222;-55
2020/12/26 01:15:00;;;;;;;3.37;2.50;;;17.90;52.20;;;;;;5005024;28;20208;-54
2020/12/26 01:17:26;;;;;;;3.40;2.60;;;17.90;52.20;;;;;;5001385;28;20578;-54
2020/12/26 01:19:57;;;;;;;3.13;2.40;;;17.90;52.20;;;;;;5006585;28;20270;-54
2020/12/26 01:22:23;;;;;;;4.07;2.40;;;17.90;52.30;;;;;;5000892;28;20664;-54
2020/12/26 01:24:50;;;;;;;3.50;2.60;;;17.80;52.30;;;;;;5007268;28;20207;-53
2020/12/26 01:27:17;;;;;;;3.27;2.70;;;17.80;52.30;;;;;;4999371;28;20226;-53
2020/12/26 01:29:46;;;;;;;3.70;2.90;;;17.80;52.40;;;;;;5005796;28;20208;-55
2020/12/26 01:32:13;;;;;;;2.70;2.20;;;17.80;52.50;;;;;;5001685;28;20215;-54
2020/12/26 01:34:39;;;;;;;2.77;2.47;;;17.80;52.50;;;;;;5004648;28;20204;-54
2020/12/26 01:37:05;;;;;;;4.47;2.77;;;17.80;52.50;;;;;;5009738;28;20200;-55
2020/12/26 01:39:32;;;;;;;3.00;2.60;;;17.80;52.50;;;;;;4997054;28;20203;-55
2020/12/26 01:41:58;;;;;;;3.43;2.70;;;17.80;52.70;;;;;;5012600;28;20184;-53
2020/12/26 01:44:24;;;;;;;3.10;2.20;;;17.70;52.60;;;;;;4997408;28;20207;-54
2020/12/26 01:46:51;;;;;;;4.37;2.67;;;17.70;52.60;;;;;;5006680;28;20675;-54
2020/12/26 01:49:19;;;;;;;3.50;2.50;;;17.70;52.60;;;;;;4999013;28;20204;-54
2020/12/26 01:51:47;;;;;;;2.90;2.17;;;17.70;52.70;;;;;;5021845;28;20211;-54
2020/12/26 01:54:14;;;;;;;2.73;2.30;;;17.70;52.70;;;;;;5001178;28;20200;-55
2020/12/26 01:56:41;;;;;;;2.50;2.10;;;17.70;52.70;;;;;;5003271;28;20688;-54
2020/12/26 01:59:08;;;;;;;2.53;2.20;;;17.60;52.70;;;;;;4999687;28;20586;-54
2020/12/26 02:01:41;;;;;;;3.90;2.50;;;17.60;52.80;;;;;;5011444;28;20192;-54
2020/12/26 02:04:12;;;;;;;3.83;2.53;;;17.60;52.80;;;;;;5000205;28;20214;-54
2020/12/26 02:06:43;;;;;;;4.33;2.60;;;17.60;52.90;;;;;;5006167;28;20198;-54
2020/12/26 02:09:12;;;;;;;2.47;2.23;;;17.60;52.90;;;;;;5000788;28;20435;-54
2020/12/26 02:11:39;;;;;;;3.20;2.50;;;17.60;53.00;;;;;;5011200;28;20227;-54
2020/12/26 02:14:06;;;;;;;7.80;2.70;;;17.60;53.00;;;;;;4995368;28;20343;-55
2020/12/26 02:16:46;;;;;;;7.03;2.10;;;17.60;53.60;;;;;;5007479;28;20195;-56
2020/12/26 02:19:13;;;;;;;5.70;2.40;;;17.60;53.90;;;;;;4985419;28;20199;-55
2020/12/26 02:21:40;;;;;;;2.70;2.07;;;17.70;54.20;;;;;;5010091;28;20192;-55
2020/12/26 02:24:07;;;;;;;4.13;1.90;;;17.80;54.20;;;;;;5006798;28;20211;-55
2020/12/26 02:26:34;;;;;;;3.83;2.17;;;17.90;54.40;;;;;;5004666;28;20227;-55
2020/12/26 02:29:01;;;;;;;2.83;2.07;;;17.90;54.00;;;;;;5007006;28;20210;-56
2020/12/26 02:31:27;;;;;;;4.83;1.97;;;18.00;54.00;;;;;;5001658;28;20211;-55
2020/12/26 02:33:53;;;;;;;4.70;1.90;;;18.00;53.90;;;;;;5006376;28;20231;-56
2020/12/26 02:36:20;;;;;;;4.03;2.03;;;18.10;54.10;;;;;;5000468;28;20239;-55
2020/12/26 02:38:46;;;;;;;3.70;1.93;;;18.10;53.90;;;;;;5009124;28;20215;-56
2020/12/26 02:41:13;;;;;;;3.70;2.10;;;18.20;53.80;;;;;;5000666;28;20207;-56
2020/12/26 02:43:40;;;;;;;3.03;2.13;;;18.20;53.80;;;;;;5008721;28;20227;-56
2020/12/26 02:46:07;;;;;;;3.27;2.00;;;18.20;53.70;;;;;;5000169;28;20214;-56
2020/12/26 02:48:34;;;;;;;8.00;2.10;;;18.30;53.50;;;;;;5003541;28;20242;-56
2020/12/26 02:51:00;;;;;;;4.03;2.00;;;18.30;53.40;;;;;;4997913;28;20204;-55
2020/12/26 02:53:27;;;;;;;17.63;2.37;;;18.30;53.30;;;;;;5010027;28;20227;-56
2020/12/26 02:55:53;;;;;;;1.70;1.60;;;18.40;53.30;;;;;;4999252;28;20226;-56
2020/12/26 02:58:24;;;;;;;2.83;2.00;;;18.40;53.10;;;;;;5006520;28;20196;-55
2020/12/26 03:00:50;;;;;;;3.10;2.17;;;18.40;53.00;;;;;;4998156;28;20200;-56
2020/12/26 03:03:17;;;;;;;3.30;2.27;;;18.50;52.90;;;;;;5009415;28;20226;-55
2020/12/26 03:05:43;;;;;;;3.00;1.90;;;18.50;52.80;;;;;;5007147;28;20570;-55
2020/12/26 03:08:10;;;;;;;2.70;2.00;;;18.50;52.70;;;;;;5001254;28;20208;-55
2020/12/26 03:10:36;;;;;;;9.63;1.90;;;18.60;52.60;;;;;;5006387;28;20305;-55
2020/12/26 03:13:03;;;;;;;2.13;1.90;;;18.60;52.70;;;;;;4999451;28;20231;-55
2020/12/26 03:15:29;;;;;;;2.97;1.77;;;18.60;52.70;;;;;;5007755;28;20205;-56
2020/12/26 03:17:55;;;;;;;2.47;2.00;;;18.60;52.50;;;;;;4999683;28;20200;-55
2020/12/26 03:20:22;;;;;;;2.50;1.80;;;18.60;52.40;;;;;;5007719;28;20208;-56
2020/12/26 03:22:49;;;;;;;2.57;1.90;;;18.70;52.30;;;;;;4998439;28;20232;-58
2020/12/26 03:25:16;;;;;;;2.77;1.93;;;18.70;52.00;;;;;;5009323;28;20199;-58
2020/12/26 03:27:43;;;;;;;5.23;1.97;;;18.60;51.60;;;;;;4994083;28;20211;-58
2020/12/26 03:30:09;;;;;;;2.33;2.00;;;18.50;51.70;;;;;;5004001;28;20202;-58
2020/12/26 03:32:37;;;;;;;1.87;1.70;;;18.50;51.70;;;;;;4997527;28;20750;-58
2020/12/26 03:35:04;;;;;;;3.03;1.73;;;18.40;51.70;;;;;;4998937;28;20194;-58
2020/12/26 03:37:33;;;;;;;2.33;1.90;;;18.40;51.70;;;;;;4998384;28;20227;-58
2020/12/26 03:39:59;;;;;;;1.87;1.60;;;18.40;51.90;;;;;;5008353;28;20918;-59
2020/12/26 03:42:25;;;;;;;2.33;1.70;;;18.30;51.90;;;;;;4998472;28;20214;-57
2020/12/26 03:44:52;;;;;;;3.10;1.83;;;18.20;51.90;;;;;;5000288;28;20196;-58
2020/12/26 03:47:18;;;;;;;3.93;1.87;;;18.20;51.90;;;;;;5004914;28;20668;-58
2020/12/26 03:49:45;;;;;;;1.93;1.70;;;18.20;52.00;;;;;;4998291;28;20207;-57
2020/12/26 03:52:12;;;;;;;3.43;2.30;;;18.10;52.00;;;;;;5005731;28;20213;-58
2020/12/26 03:54:38;;;;;;;2.10;1.70;;;18.20;52.10;;;;;;5001364;28;20192;-57
2020/12/26 03:57:04;;;;;;;2.37;1.87;;;18.10;52.10;;;;;;5005419;28;20329;-57
2020/12/26 03:59:31;;;;;;;1.73;1.63;;;18.10;52.20;;;;;;5001224;28;20648;-58
2020/12/26 04:01:57;;;;;;;2.30;1.83;;;18.10;52.30;;;;;;5004864;28;20219;-58
2020/12/26 04:04:23;;;;;;;2.60;1.93;;;18.00;52.20;;;;;;5001036;28;20204;-57
2020/12/26 04:06:53;;;;;;;2.60;1.80;;;18.00;52.20;;;;;;5003421;28;20198;-58
2020/12/26 04:09:20;;;;;;;2.03;1.80;;;18.00;52.20;;;;;;5001082;28;20230;-58
2020/12/26 04:11:46;;;;;;;2.37;1.93;;;18.00;52.90;;;;;;5002914;28;20311;-58
2020/12/26 04:14:13;;;;;;;2.10;1.90;;;17.90;52.40;;;;;;5001074;28;20219;-58
2020/12/26 04:16:39;;;;;;;2.97;1.80;;;17.90;52.40;;;;;;5004371;28;20262;-57
2020/12/26 04:19:06;;;;;;;2.37;1.90;;;17.90;52.60;;;;;;5000009;28;20252;-57
2020/12/26 04:21:51;;;;;;;2.37;1.93;;;17.90;52.50;;;;;;5005762;28;20204;-57
2020/12/26 04:24:17;;;;;;;2.13;1.60;;;17.90;52.60;;;;;;5000824;28;20226;-57
2020/12/26 04:26:44;;;;;;;2.10;1.67;;;17.90;52.70;;;;;;5006537;28;20200;-58
2020/12/26 04:29:10;;;;;;;1.80;1.50;;;17.80;52.70;;;;;;5006163;28;20226;-58
2020/12/26 04:31:37;;;;;;;2.17;1.80;;;17.80;52.70;;;;;;4999110;28;20204;-58
2020/12/26 04:34:03;;;;;;;3.07;1.87;;;17.80;52.80;;;;;;5006743;28;20885;-57
2020/12/26 04:36:30;;;;;;;3.10;1.90;;;17.80;52.70;;;;;;4997563;28;20198;-57
2020/12/26 04:38:59;;;;;;;2.13;1.93;;;17.80;52.80;;;;;;5005403;28;20236;-58
2020/12/26 04:41:25;;;;;;;1.90;1.60;;;17.70;52.80;;;;;;4996131;28;20259;-58
2020/12/26 04:43:55;;;;;;;1.30;1.20;;;17.70;52.90;;;;;;5007191;28;20212;-57
2020/12/26 04:46:26;;;;;;;3.93;1.83;;;17.70;52.90;;;;;;4994827;28;20584;-57
2020/12/26 04:49:06;;;;;;;2.30;2.00;;;17.70;52.90;;;;;;5004651;28;21037;-57
2020/12/26 04:51:37;;;;;;;2.47;1.70;;;17.60;52.90;;;;;;4995084;28;20792;-58
2020/12/26 04:54:09;;;;;;;1.53;1.43;;;17.60;53.00;;;;;;5008205;28;20220;-57
2020/12/26 04:56:42;;;;;;;1.57;1.47;;;17.60;53.00;;;;;;4994725;28;20243;-58
2020/12/26 04:59:09;;;;;;;1.90;1.50;;;17.60;53.10;;;;;;5019581;28;20197;-59
2020/12/26 05:01:38;;;;;;;1.73;1.63;;;17.60;53.10;;;;;;4999107;28;20202;-57
2020/12/26 05:04:04;;;;;;;1.63;1.40;;;17.60;53.10;;;;;;5007071;28;20200;-58
2020/12/26 05:06:31;;;;;;;1.73;1.50;;;17.50;53.20;;;;;;5000043;28;20202;-58
2020/12/26 05:08:58;;;;;;;1.57;1.43;;;17.50;53.20;;;;;;5009373;28;20699;-57
2020/12/26 05:11:24;;;;;;;2.13;1.67;;;17.50;53.30;;;;;;5000145;28;20271;-58
2020/12/26 05:13:51;;;;;;;2.40;2.10;;;17.50;53.20;;;;;;4988701;28;20715;-58
2020/12/26 05:16:17;;;;;;;2.80;1.80;;;17.50;53.30;;;;;;5001824;28;20218;-58
2020/12/26 05:18:47;;;;;;;2.33;1.73;;;17.50;53.30;;;;;;5003689;28;20258;-57
2020/12/26 05:21:23;;;;;;;2.63;1.80;;;17.50;53.30;;;;;;5005055;28;20230;-58
2020/12/26 05:24:02;;;;;;;3.00;1.83;;;17.50;53.40;;;;;;5004622;28;20211;-58
2020/12/26 05:26:45;;;;;;;2.40;1.53;;;17.40;53.40;;;;;;5007042;28;20200;-58
2020/12/26 05:29:13;;;;;;;3.17;1.30;;;17.40;53.50;;;;;;5014658;28;20207;-57
2020/12/26 05:31:57;;;;;;;2.27;1.60;;;17.40;53.50;;;;;;5010727;28;20760;-57
2020/12/26 05:34:44;;;;;;;2.43;1.70;;;17.40;53.60;;;;;;5007822;28;20196;-57
2020/12/26 05:37:16;;;;;;;1.77;1.63;;;17.40;53.60;;;;;;5004015;28;20769;-57
2020/12/26 05:39:43;;;;;;;2.90;1.50;;;17.40;53.70;;;;;;5005760;28;20262;-58
2020/12/26 05:42:18;;;;;;;1.33;1.23;;;17.40;53.70;;;;;;5010510;28;20203;-58
2020/12/26 05:44:45;;;;;;;1.97;1.40;;;17.30;53.70;;;;;;5000928;28;20278;-58
2020/12/26 05:47:11;;;;;;;2.10;1.63;;;17.30;53.70;;;;;;5010392;28;20208;-58
2020/12/26 05:49:39;;;;;;;2.23;1.60;;;17.30;53.80;;;;;;5001943;28;20230;-58
2020/12/26 05:52:09;;;;;;;2.37;1.80;;;17.30;53.80;;;;;;5010375;28;20200;-57
2020/12/26 05:54:37;;;;;;;2.27;1.63;;;17.30;53.90;;;;;;5001511;28;20240;-58
2020/12/26 05:57:11;;;;;;;2.30;1.30;;;17.20;53.90;;;;;;5015147;28;20274;-57
2020/12/26 05:59:38;;;;;;;2.07;1.73;;;17.20;53.90;;;;;;4998995;28;20208;-58
2020/12/26 06:02:28;;;;;;;2.47;1.50;;;17.30;54.10;;;;;;5011588;28;20199;-57
2020/12/26 06:05:00;;;;;;;1.67;1.20;;;17.20;54.00;;;;;;4999570;28;20208;-57
2020/12/26 06:07:36;;;;;;;1.97;1.50;;;17.20;54.10;;;;;;5010182;28;20254;-58
2020/12/26 06:10:05;;;;;;;2.43;1.57;;;17.20;54.10;;;;;;5000100;28;20203;-58
2020/12/26 06:12:32;;;;;;;1.83;1.60;;;17.20;54.70;;;;;;5007670;28;20836;-57
2020/12/26 06:14:59;;;;;;;2.37;1.70;;;17.20;54.10;;;;;;5000453;28;20199;-58
2020/12/26 06:17:30;;;;;;;2.43;1.70;;;17.20;54.20;;;;;;5010321;28;20195;-58
2020/12/26 06:19:58;;;;;;;1.90;1.77;;;17.20;54.10;;;;;;4998836;28;20228;-58
2020/12/26 06:22:24;;;;;;;1.83;1.50;;;17.20;54.10;;;;;;5010969;28;20190;-57
2020/12/26 06:24:53;;;;;;;2.03;1.47;;;17.20;54.10;;;;;;4998830;28;20199;-58
2020/12/26 06:27:24;;;;;;;1.90;1.43;;;17.20;54.80;;;;;;5010537;28;20300;-57
2020/12/26 06:29:50;;;;;;;3.33;1.90;;;17.10;54.10;;;;;;4999683;28;20199;-58
2020/12/26 06:32:18;;;;;;;4.63;1.80;;;17.10;54.10;;;;;;5009578;28;20215;-58
2020/12/26 06:34:44;;;;;;;3.23;1.87;;;17.10;54.20;;;;;;4998407;28;20208;-58
2020/12/26 06:37:11;;;;;;;2.20;1.60;;;17.10;54.20;;;;;;5021176;28;20291;-58
2020/12/26 06:39:38;;;;;;;2.63;1.53;;;17.10;54.20;;;;;;5006490;28;20196;-57
2020/12/26 06:42:12;;;;;;;2.80;1.90;;;17.10;54.20;;;;;;5001495;28;20204;-57
2020/12/26 06:44:38;;;;;;;2.53;1.63;;;17.10;54.20;;;;;;5006132;28;20210;-58
2020/12/26 06:47:05;;;;;;;1.70;1.33;;;17.00;54.10;;;;;;5002670;28;20204;-58
2020/12/26 06:49:31;;;;;;;1.77;1.57;;;17.00;54.20;;;;;;5004548;28;20236;-58
2020/12/26 06:51:58;;;;;;;3.13;1.60;;;17.00;54.20;;;;;;5001733;28;20217;-57
2020/12/26 06:54:38;;;;;;;2.67;1.30;;;17.00;54.20;;;;;;5007184;28;20262;-58
2020/12/26 06:57:04;;;;;;;3.10;1.70;;;17.00;54.20;;;;;;4994670;28;20236;-57
2020/12/26 06:59:36;;;;;;;1.97;1.40;;;17.00;54.20;;;;;;5007283;28;20298;-58
2020/12/26 07:02:08;;;;;;;2.80;1.53;;;17.00;54.20;;;;;;4999700;28;20200;-58
2020/12/26 07:04:41;;;;;;;2.17;1.53;;;17.00;54.20;;;;;;5007223;28;20230;-58
2020/12/26 07:07:11;;;;;;;2.10;1.43;;;17.00;54.20;;;;;;5002274;28;20212;-58
2020/12/26 07:09:37;;;;;;;2.73;1.70;;;17.00;54.30;;;;;;5006232;28;20202;-58
2020/12/26 07:12:05;;;;;;;2.20;1.60;;;17.00;54.20;;;;;;5001181;28;20200;-58
2020/12/26 07:14:38;;;;;;;2.03;1.27;;;17.00;54.30;;;;;;5006400;28;20227;-58
2020/12/26 07:17:14;;;;;;;2.20;1.33;;;17.00;54.30;;;;;;5008524;28;20406;-58
2020/12/26 07:19:42;;;;;;;2.03;1.50;;;16.90;54.20;;;;;;5007215;28;20199;-58
2020/12/26 07:22:23;;;;;;;2.87;1.60;;;17.00;54.30;;;;;;5000704;28;20523;-57
2020/12/26 07:25:02;;;;;;;2.40;1.97;;;16.90;54.20;;;;;;5006482;28;20188;-58
2020/12/26 07:27:41;;;;;;;1.80;1.50;;;16.90;54.30;;;;;;4999707;28;20204;-58
2020/12/26 07:30:19;;;;;;;2.27;1.53;;;16.90;54.30;;;;;;5008038;28;20198;-58
2020/12/26 07:32:57;;;;;;;1.50;1.13;;;16.90;54.30;;;;;;5002042;28;20302;-58
2020/12/26 07:35:44;;;;;;;1.93;1.50;;;16.90;54.30;;;;;;5010115;28;20183;-58
2020/12/26 07:38:14;;;;;;;2.80;1.57;;;16.90;54.40;;;;;;4998039;28;20196;-58
2020/12/26 07:40:43;;;;;;;2.57;1.50;;;16.90;54.30;;;;;;5006050;28;20184;-58
2020/12/26 07:43:13;;;;;;;2.00;1.20;;;16.90;54.30;;;;;;4997611;28;20207;-58
2020/12/26 07:45:42;;;;;;;2.63;1.50;;;16.90;54.40;;;;;;5007035;28;20665;-57
2020/12/26 07:48:10;;;;;;;3.17;1.50;;;16.80;54.30;;;;;;4965366;28;20204;-58
2020/12/26 07:50:39;;;;;;;2.53;1.60;;;16.80;54.30;;;;;;5006603;28;20207;-58
2020/12/26 07:53:12;;;;;;;2.70;1.60;;;16.90;54.40;;;;;;4981022;28;20242;-57
2020/12/26 07:55:39;;;;;;;2.50;1.40;;;16.90;54.40;;;;;;5007495;28;20199;-58
2020/12/26 07:58:13;;;;;;;1.90;1.57;;;16.80;54.40;;;;;;4988197;28;20707;-57
2020/12/26 08:00:42;;;;;;;2.10;1.50;;;16.80;54.50;;;;;;5002295;28;20686;-58
2020/12/26 08:03:11;;;;;;;3.07;1.70;;;16.80;54.40;;;;;;5005614;28;20683;-58
2020/12/26 08:05:45;;;;;;;1.40;1.13;;;16.80;54.50;;;;;;4990154;28;22138;-58
2020/12/26 08:08:13;;;;;;;3.20;1.40;;;16.80;54.50;;;;;;5003037;28;20204;-58
2020/12/26 08:10:39;;;;;;;2.87;1.33;;;16.80;54.50;;;;;;4997470;28;20351;-58
2020/12/26 08:13:06;;;;;;;2.50;1.40;;;16.80;54.50;;;;;;5000176;28;20228;-58
2020/12/26 08:15:32;;;;;;;3.37;1.30;;;16.80;54.60;;;;;;4975989;28;20297;-57
2020/12/26 08:18:01;;;;;;;2.90;1.73;;;16.80;54.60;;;;;;4983776;28;20255;-57
2020/12/26 08:20:33;;;;;;;1.90;1.50;;;16.80;54.70;;;;;;4997896;28;20211;-57
2020/12/26 08:22:59;;;;;;;2.60;1.27;;;16.80;54.70;;;;;;5002557;28;20562;-58
2020/12/26 08:25:28;;;;;;;2.13;1.30;;;16.80;54.60;;;;;;4997238;28;20208;-58
2020/12/26 08:27:55;;;;;;;2.90;1.57;;;16.70;54.50;;;;;;4994781;28;20291;-58
2020/12/26 08:30:27;;;;;;;5.30;1.90;;;16.80;54.50;;;;;;4996179;28;20269;-57
2020/12/26 08:33:25;;;;;;;3.80;1.70;;;16.80;55.70;;;;;;4998298;28;20786;-57
2020/12/26 08:36:01;;;;;;;2.67;1.70;;;16.80;56.90;;;;;;4994138;28;20207;-58
2020/12/26 08:38:48;;;;;;;3.40;1.67;;;16.80;56.30;;;;;;4998549;28;20203;-57
2020/12/26 08:41:17;;;;;;;4.20;2.00;;;16.80;56.40;;;;;;4994043;28;20841;-57
2020/12/26 08:43:44;;;;;;;6.07;2.00;;;16.80;56.10;;;;;;5002541;28;20208;-57
2020/12/26 08:46:16;;;;;;;5.33;2.30;;;16.80;56.20;;;;;;4999641;28;20204;-57
2020/12/26 08:48:43;;;;;;;4.17;2.37;;;16.80;56.10;;;;;;5004427;28;20218;-57
2020/12/26 08:51:30;;;;;;;3.83;2.10;;;16.80;56.00;;;;;;4995695;28;20208;-57
2020/12/26 08:53:56;;;;;;;4.77;2.13;;;16.80;55.80;;;;;;5005388;28;20203;-57
2020/12/26 08:56:37;;;;;;;5.03;2.10;;;16.80;55.70;;;;;;4997243;28;20196;-57
2020/12/26 08:59:04;;;;;;;6.30;2.37;;;16.80;55.60;;;;;;5010858;28;20765;-57
2020/12/26 09:01:31;;;;;;;9.77;2.17;;;16.80;55.60;;;;;;5003070;28;20213;-54
2020/12/26 09:03:57;;;;;;;12.80;4.07;;;16.70;56.00;;;;;;5006580;28;20207;-55
2020/12/26 09:06:38;;;;;;;26.73;6.50;;;16.80;56.40;;;;;;5002115;28;20216;-55
2020/12/26 09:09:17;;;;;;;24.33;6.37;;;16.80;57.30;;;;;;5002527;28;20195;-54
2020/12/26 09:11:45;;;;;;;19.67;6.50;;;16.70;57.50;;;;;;4995494;28;20207;-54
2020/12/26 09:14:21;;;;;;;23.40;7.03;;;16.70;56.60;;;;;;4985839;28;20234;-54
2020/12/26 09:16:56;;;;;;;19.10;6.40;;;16.80;56.70;;;;;;4977929;28;21834;-55
2020/12/26 09:19:23;;;;;;;22.97;6.40;;;16.70;56.50;;;;;;5012411;28;20242;-55
2020/12/26 09:21:49;;;;;;;16.13;5.87;;;16.80;56.60;;;;;;4979604;28;20212;-54
2020/12/26 09:24:17;;;;;;;28.27;6.23;;;16.70;56.60;;;;;;4988362;28;20223;-54
2020/12/26 09:26:44;;;;;;;17.90;6.10;;;16.70;56.40;;;;;;4979927;28;20207;-55
2020/12/26 09:29:20;;;;;;;17.07;5.67;;;16.70;56.50;;;;;;4997650;28;20212;-55
2020/12/26 09:31:46;;;;;;;22.93;6.03;;;16.70;56.90;;;;;;4987803;28;20211;-55
2020/12/26 09:34:15;;;;;;;23.10;5.87;;;16.80;56.90;;;;;;4977717;28;20230;-55
2020/12/26 09:36:41;;;;;;;13.87;5.60;;;16.70;57.00;;;;;;4984893;28;20645;-55
2020/12/26 09:39:08;;;;;;;14.07;4.97;;;16.70;57.30;;;;;;4976809;28;20215;-55
2020/12/26 09:41:49;;;;;;;17.63;5.60;;;16.70;56.60;;;;;;5003109;28;20211;-55
2020/12/26 09:44:16;;;;;;;16.20;5.50;;;16.70;56.50;;;;;;4998931;28;20206;-55
2020/12/26 09:46:43;;;;;;;12.33;4.77;;;16.80;56.40;;;;;;4988026;28;20247;-55
2020/12/26 09:49:10;;;;;;;13.20;4.50;;;16.70;57.10;;;;;;4981029;28;20207;-55
2020/12/26 09:51:36;;;;;;;10.07;4.43;;;16.70;56.30;;;;;;4984398;28;20676;-55
2020/12/26 09:54:03;;;;;;;11.83;4.20;;;16.70;56.30;;;;;;4974254;28;20250;-55
2020/12/26 09:56:32;;;;;;;13.57;3.60;;;16.70;56.20;;;;;;5007116;28;20239;-55
2020/12/26 09:58:58;;;;;;;10.07;4.17;;;16.70;56.10;;;;;;4994600;28;20211;-55
2020/12/26 10:01:24;;;;;;;10.03;3.87;;;16.70;56.00;;;;;;5008146;28;20187;-55
2020/12/26 10:03:51;;;;;;;9.53;3.97;;;16.70;56.00;;;;;;5001845;28;20226;-55
2020/12/26 10:06:19;;;;;;;10.30;3.83;;;16.70;56.00;;;;;;5007694;28;20211;-54
2020/12/26 10:08:47;;;;;;;7.87;3.90;;;16.70;55.90;;;;;;5000782;28;20212;-55
2020/12/26 10:11:16;;;;;;;7.30;3.83;;;16.70;55.90;;;;;;5005294;28;20653;-54
2020/12/26 10:13:44;;;;;;;8.70;3.90;;;16.70;55.80;;;;;;5000746;28;21095;-55
2020/12/26 10:16:11;;;;;;;11.10;4.30;;;16.70;55.70;;;;;;4987780;28;20207;-55
2020/12/26 10:18:38;;;;;;;9.17;3.70;;;16.70;55.60;;;;;;4999092;28;20710;-54
2020/12/26 10:21:05;;;;;;;10.30;3.63;;;16.70;55.70;;;;;;4995590;28;20233;-55
2020/12/26 10:23:31;;;;;;;9.17;3.43;;;16.70;55.60;;;;;;4986171;28;20208;-55
2020/12/26 10:26:05;;;;;;;8.13;3.90;;;16.70;55.50;;;;;;4977762;28;20235;-54
2020/12/26 10:32:13;;;;;;;6.90;3.40;;;16.70;55.70;;;;;;5006569;28;20179;-55
2020/12/26 10:34:39;;;;;;;12.03;3.43;;;16.70;55.60;;;;;;4999923;28;20231;-54
2020/12/26 10:37:05;;;;;;;11.00;3.63;;;16.70;55.60;;;;;;4993439;28;20196;-55
2020/12/26 10:39:31;;;;;;;7.10;3.40;;;16.70;55.90;;;;;;5009302;28;20220;-55
2020/12/26 10:41:58;;;;;;;6.10;2.97;;;16.80;56.60;;;;;;4998438;28;20203;-55
2020/12/26 10:44:24;;;;;;;4.73;2.77;;;16.70;57.50;;;;;;5007596;28;20217;-55
2020/12/26 10:46:50;;;;;;;6.00;2.63;;;16.70;57.20;;;;;;4997619;28;20205;-55
2020/12/26 10:49:16;;;;;;;5.10;2.77;;;16.70;57.30;;;;;;5006983;28;20212;-55
2020/12/26 10:51:48;;;;;;;6.47;2.93;;;16.70;57.30;;;;;;4996399;28;20329;-55
2020/12/26 10:54:14;;;;;;;4.47;2.90;;;16.70;57.50;;;;;;5006649;28;20222;-55
2020/12/26 10:56:48;;;;;;;5.10;2.33;;;16.70;57.30;;;;;;4999330;28;20199;-55
2020/12/26 10:59:15;;;;;;;4.40;2.27;;;16.70;57.50;;;;;;5006652;28;20200;-55
2020/12/26 11:01:41;;;;;;;7.30;2.80;;;16.70;57.40;;;;;;4996184;28;20192;-55
2020/12/26 11:04:07;;;;;;;5.67;2.27;;;16.70;57.60;;;;;;5007990;28;20211;-55
2020/12/26 11:06:34;;;;;;;6.03;2.53;;;16.70;57.50;;;;;;4998870;28;20207;-55
2020/12/26 11:09:01;;;;;;;4.13;2.03;;;16.70;57.60;;;;;;5006848;28;20663;-54
2020/12/26 11:11:27;;;;;;;4.47;1.70;;;16.70;57.50;;;;;;4991122;28;20207;-55
2020/12/26 11:13:57;;;;;;;3.33;1.90;;;16.70;57.40;;;;;;5004977;28;20216;-57
2020/12/26 11:16:27;;;;;;;3.93;2.00;;;16.70;57.50;;;;;;4997556;28;20192;-55
2020/12/26 11:18:53;;;;;;;4.90;1.80;;;16.80;57.60;;;;;;5004080;28;20212;-55
2020/12/26 11:21:20;;;;;;;5.13;2.10;;;16.70;57.60;;;;;;5007201;28;20188;-55
2020/12/26 11:23:46;;;;;;;4.57;2.20;;;16.80;57.30;;;;;;4995473;28;20648;-55
2020/12/26 11:26:26;;;;;;;3.57;1.93;;;16.80;57.50;;;;;;5005608;28;20889;-55
2020/12/26 11:28:52;;;;;;;2.13;1.67;;;16.70;57.50;;;;;;5001211;28;20204;-55
2020/12/26 11:31:23;;;;;;;5.97;2.07;;;16.70;57.50;;;;;;5007031;28;20204;-55
2020/12/26 11:33:50;;;;;;;2.60;2.00;;;16.70;57.50;;;;;;5000373;28;20601;-55
2020/12/26 11:36:27;;;;;;;2.47;1.80;;;16.70;57.50;;;;;;5004558;28;20204;-55
2020/12/26 11:38:55;;;;;;;4.40;2.20;;;16.70;57.50;;;;;;4997186;28;20208;-54
2020/12/26 11:41:24;;;;;;;3.10;1.57;;;16.70;57.50;;;;;;5005383;28;20207;-55
2020/12/26 11:43:51;;;;;;;2.50;1.60;;;16.70;57.30;;;;;;5001598;28;20211;-55
2020/12/26 11:46:17;;;;;;;3.27;1.27;;;16.70;57.40;;;;;;5004125;28;20610;-55
2020/12/26 11:48:45;;;;;;;2.17;1.43;;;16.70;57.30;;;;;;4998303;28;20199;-55
2020/12/26 11:51:13;;;;;;;3.37;1.70;;;16.70;57.50;;;;;;5004182;28;20203;-55
2020/12/26 11:53:40;;;;;;;4.70;1.90;;;16.70;57.50;;;;;;4987633;28;20223;-56
2020/12/26 11:56:28;;;;;;;2.70;1.37;;;16.70;57.50;;;;;;5001140;28;20204;-56
2020/12/26 11:58:54;;;;;;;3.47;1.60;;;16.80;58.20;;;;;;4997070;28;20215;-56
2020/12/26 12:01:23;;;;;;;3.20;2.00;;;16.80;58.20;;;;;;5003427;28;20196;-56
2020/12/26 12:03:49;;;;;;;2.23;1.70;;;16.80;58.10;;;;;;4999583;28;20690;-54
2020/12/26 12:06:15;;;;;;;3.47;1.60;;;16.90;58.70;;;;;;5002468;28;20641;-54
2020/12/26 12:08:43;;;;;;;2.33;1.60;;;16.90;58.60;;;;;;4999464;28;20262;-54
2020/12/26 12:11:10;;;;;;;3.33;1.33;;;16.90;58.20;;;;;;5005013;28;20203;-54
2020/12/26 12:13:37;;;;;;;3.10;1.70;;;16.90;58.10;;;;;;5005384;28;20219;-53
2020/12/26 12:16:04;;;;;;;1.90;1.40;;;16.90;58.00;;;;;;5001331;28;20203;-54
2020/12/26 12:18:31;;;;;;;3.50;1.53;;;16.90;57.80;;;;;;5005929;28;20205;-54
2020/12/26 12:20:57;;;;;;;2.67;1.43;;;16.90;57.80;;;;;;4998726;28;20219;-55
2020/12/26 12:23:25;;;;;;;4.07;1.70;;;16.90;57.80;;;;;;5005655;28;20207;-53
2020/12/26 12:25:51;;;;;;;2.20;1.50;;;16.90;57.70;;;;;;4994505;28;20206;-54
2020/12/26 12:28:18;;;;;;;3.57;1.53;;;16.90;57.50;;;;;;5005781;28;20191;-54
2020/12/26 12:30:44;;;;;;;3.03;1.70;;;16.90;57.50;;;;;;4998059;28;20199;-54
2020/12/26 12:33:10;;;;;;;2.30;1.50;;;16.90;57.60;;;;;;5001810;28;20223;-54
2020/12/26 12:35:36;;;;;;;2.47;1.53;;;16.90;57.50;;;;;;4981560;28;20203;-53
2020/12/26 15:06:28;;;;;;;3.13;1.00;;;20.10;49.20;;;;;;5024699;28;20207;-57
2020/12/26 15:08:55;;;;;;;3.00;0.90;;;20.50;48.20;;;;;;4940300;28;20225;-57
2020/12/26 15:11:21;;;;;;;2.30;0.90;;;20.60;47.90;;;;;;4929425;28;20218;-55
2020/12/26 15:13:47;;;;;;;2.00;0.83;;;20.80;47.50;;;;;;4941611;29;20236;-56
2020/12/26 15:16:16;;;;;;;3.53;0.87;;;20.90;47.40;;;;;;4934274;28;20206;-57
2020/12/26 15:18:43;;;;;;;1.47;1.00;;;20.90;47.20;;;;;;4941356;28;20202;-58
2020/12/26 15:21:10;;;;;;;1.00;0.70;;;21.10;47.10;;;;;;4936769;28;20230;-59
2020/12/26 15:23:37;;;;;;;1.67;0.93;;;21.20;46.80;;;;;;4935760;28;20713;-57
2020/12/26 15:26:03;;;;;;;1.53;1.10;;;21.30;46.60;;;;;;4935411;28;20215;-56